sensor_id;sensor_type;location;lat;lon;timestamp;temperature;humidity
49379;DHT22;35254;47.990;-1.608;2023-11-22T00:00:14;20.90;56.60
49379;DHT22;35254;47.990;-1.608;2023-11-22T00:02:40;20.90;56.60
49379;DHT22;35254;47.990;-1.608;2023-11-22T00:05:06;20.90;56.60
49379;DHT22;35254;47.990;-1.608;2023-11-22T00:07:33;20.90;56.50
49379;DHT22;35254;47.990;-1.608;2023-11-22T00:09:58;20.90;56.50
49379;DHT22;35254;47.990;-1.608;2023-11-22T00:12:25;20.90;56.50
49379;DHT22;35254;47.990;-1.608;2023-11-22T00:14:51;20.90;56.50
49379;DHT22;35254;47.990;-1.608;2023-11-22T00:17:17;20.90;56.50
49379;DHT22;35254;47.990;-1.608;2023-11-22T00:19:44;20.90;56.50
49379;DHT22;35254;47.990;-1.608;2023-11-22T00:22:13;20.90;56.50
49379;DHT22;35254;47.990;-1.608;2023-11-22T00:24:39;21.00;56.50
49379;DHT22;35254;47.990;-1.608;2023-11-22T00:27:06;20.90;56.50
49379;DHT22;35254;47.990;-1.608;2023-11-22T00:29:31;20.90;56.40
49379;DHT22;35254;47.990;-1.608;2023-11-22T00:31:57;20.90;56.40
49379;DHT22;35254;47.990;-1.608;2023-11-22T00:34:23;20.90;56.40
49379;DHT22;35254;47.990;-1.608;2023-11-22T00:36:49;20.90;56.40
49379;DHT22;35254;47.990;-1.608;2023-11-22T00:39:16;20.90;56.40
49379;DHT22;35254;47.990;-1.608;2023-11-22T00:41:42;20.90;56.40
49379;DHT22;35254;47.990;-1.608;2023-11-22T00:44:07;20.90;56.40
49379;DHT22;35254;47.990;-1.608;2023-11-22T00:46:33;20.90;56.30
49379;DHT22;35254;47.990;-1.608;2023-11-22T00:48:58;20.90;56.30
49379;DHT22;35254;47.990;-1.608;2023-11-22T00:51:24;20.90;56.30
49379;DHT22;35254;47.990;-1.608;2023-11-22T00:53:50;20.90;56.30
49379;DHT22;35254;47.990;-1.608;2023-11-22T00:56:16;20.90;56.30
49379;DHT22;35254;47.990;-1.608;2023-11-22T00:58:42;20.90;56.30
49379;DHT22;35254;47.990;-1.608;2023-11-22T01:01:08;20.90;56.30
49379;DHT22;35254;47.990;-1.608;2023-11-22T01:03:34;20.80;56.30
49379;DHT22;35254;47.990;-1.608;2023-11-22T01:06:03;20.90;56.30
49379;DHT22;35254;47.990;-1.608;2023-11-22T01:08:28;20.90;56.30
49379;DHT22;35254;47.990;-1.608;2023-11-22T01:10:54;20.80;56.20
49379;DHT22;35254;47.990;-1.608;2023-11-22T01:13:19;20.90;56.40
49379;DHT22;35254;47.990;-1.608;2023-11-22T01:15:47;20.90;56.30
49379;DHT22;35254;47.990;-1.608;2023-11-22T01:18:13;20.90;56.30
49379;DHT22;35254;47.990;-1.608;2023-11-22T01:20:38;20.90;56.30
49379;DHT22;35254;47.990;-1.608;2023-11-22T01:23:04;20.90;56.30
49379;DHT22;35254;47.990;-1.608;2023-11-22T01:25:30;20.90;56.30
49379;DHT22;35254;47.990;-1.608;2023-11-22T01:27:55;20.80;56.20
49379;DHT22;35254;47.990;-1.608;2023-11-22T01:30:21;20.80;56.30
49379;DHT22;35254;47.990;-1.608;2023-11-22T01:32:47;20.80;56.30
49379;DHT22;35254;47.990;-1.608;2023-11-22T01:35:14;20.80;56.20
49379;DHT22;35254;47.990;-1.608;2023-11-22T01:37:41;20.80;56.30
49379;DHT22;35254;47.990;-1.608;2023-11-22T01:40:08;20.80;56.20
49379;DHT22;35254;47.990;-1.608;2023-11-22T01:42:34;20.80;56.30
49379;DHT22;35254;47.990;-1.608;2023-11-22T01:45:02;20.80;56.20
49379;DHT22;35254;47.990;-1.608;2023-11-22T01:47:29;20.80;56.20
49379;DHT22;35254;47.990;-1.608;2023-11-22T01:49:54;20.80;56.20
49379;DHT22;35254;47.990;-1.608;2023-11-22T01:52:20;20.80;56.20
49379;DHT22;35254;47.990;-1.608;2023-11-22T01:54:45;20.80;56.20
49379;DHT22;35254;47.990;-1.608;2023-11-22T01:57:12;20.80;56.20
49379;DHT22;35254;47.990;-1.608;2023-11-22T01:59:38;20.80;56.20
49379;DHT22;35254;47.990;-1.608;2023-11-22T02:02:04;20.80;56.20
49379;DHT22;35254;47.990;-1.608;2023-11-22T02:04:30;20.80;56.10
49379;DHT22;35254;47.990;-1.608;2023-11-22T02:06:56;20.80;56.20
49379;DHT22;35254;47.990;-1.608;2023-11-22T02:09:21;20.80;56.10
49379;DHT22;35254;47.990;-1.608;2023-11-22T02:11:47;20.80;56.20
49379;DHT22;35254;47.990;-1.608;2023-11-22T02:14:14;20.80;56.10
49379;DHT22;35254;47.990;-1.608;2023-11-22T02:16:40;20.80;56.20
49379;DHT22;35254;47.990;-1.608;2023-11-22T02:19:07;20.70;56.10
49379;DHT22;35254;47.990;-1.608;2023-11-22T02:21:34;20.70;56.10
49379;DHT22;35254;47.990;-1.608;2023-11-22T02:24:00;20.70;56.10
49379;DHT22;35254;47.990;-1.608;2023-11-22T02:26:25;20.70;56.10
49379;DHT22;35254;47.990;-1.608;2023-11-22T02:28:51;20.70;56.10
49379;DHT22;35254;47.990;-1.608;2023-11-22T02:31:17;20.70;56.10
49379;DHT22;35254;47.990;-1.608;2023-11-22T02:33:42;20.70;56.10
49379;DHT22;35254;47.990;-1.608;2023-11-22T02:36:09;20.70;56.10
49379;DHT22;35254;47.990;-1.608;2023-11-22T02:38:38;20.70;56.10
49379;DHT22;35254;47.990;-1.608;2023-11-22T02:41:03;20.70;56.00
49379;DHT22;35254;47.990;-1.608;2023-11-22T02:43:30;20.70;56.00
49379;DHT22;35254;47.990;-1.608;2023-11-22T02:45:56;20.70;56.10
49379;DHT22;35254;47.990;-1.608;2023-11-22T02:48:21;20.70;56.10
49379;DHT22;35254;47.990;-1.608;2023-11-22T02:50:48;20.70;56.10
49379;DHT22;35254;47.990;-1.608;2023-11-22T02:53:14;20.70;56.10
49379;DHT22;35254;47.990;-1.608;2023-11-22T02:55:40;20.70;56.00
49379;DHT22;35254;47.990;-1.608;2023-11-22T02:58:06;20.70;56.10
49379;DHT22;35254;47.990;-1.608;2023-11-22T03:00:32;20.70;56.00
49379;DHT22;35254;47.990;-1.608;2023-11-22T03:03:00;20.70;56.00
49379;DHT22;35254;47.990;-1.608;2023-11-22T03:05:26;20.70;56.10
49379;DHT22;35254;47.990;-1.608;2023-11-22T03:07:51;20.70;56.10
49379;DHT22;35254;47.990;-1.608;2023-11-22T03:10:17;20.70;56.00
49379;DHT22;35254;47.990;-1.608;2023-11-22T03:12:44;20.70;56.10
49379;DHT22;35254;47.990;-1.608;2023-11-22T03:15:10;20.70;56.10
49379;DHT22;35254;47.990;-1.608;2023-11-22T03:17:36;20.70;56.10
49379;DHT22;35254;47.990;-1.608;2023-11-22T03:20:04;20.70;56.10
49379;DHT22;35254;47.990;-1.608;2023-11-22T03:22:34;20.70;56.10
49379;DHT22;35254;47.990;-1.608;2023-11-22T03:25:02;20.70;56.10
49379;DHT22;35254;47.990;-1.608;2023-11-22T03:27:28;20.70;56.10
49379;DHT22;35254;47.990;-1.608;2023-11-22T03:29:53;20.70;56.20
49379;DHT22;35254;47.990;-1.608;2023-11-22T03:32:19;20.70;56.30
49379;DHT22;35254;47.990;-1.608;2023-11-22T03:34:45;20.70;56.30
49379;DHT22;35254;47.990;-1.608;2023-11-22T03:37:10;20.70;56.30
49379;DHT22;35254;47.990;-1.608;2023-11-22T03:39:36;20.70;56.40
49379;DHT22;35254;47.990;-1.608;2023-11-22T03:42:02;20.70;56.30
49379;DHT22;35254;47.990;-1.608;2023-11-22T03:44:28;20.70;56.30
49379;DHT22;35254;47.990;-1.608;2023-11-22T03:46:54;20.70;56.30
49379;DHT22;35254;47.990;-1.608;2023-11-22T03:49:19;20.70;56.50
49379;DHT22;35254;47.990;-1.608;2023-11-22T03:51:46;20.70;56.40
49379;DHT22;35254;47.990;-1.608;2023-11-22T03:54:12;20.70;56.40
49379;DHT22;35254;47.990;-1.608;2023-11-22T03:56:38;20.70;56.40
49379;DHT22;35254;47.990;-1.608;2023-11-22T03:59:03;20.70;56.30
49379;DHT22;35254;47.990;-1.608;2023-11-22T04:01:29;20.70;56.30
49379;DHT22;35254;47.990;-1.608;2023-11-22T04:03:55;20.70;56.30
49379;DHT22;35254;47.990;-1.608;2023-11-22T04:06:20;20.70;56.30
49379;DHT22;35254;47.990;-1.608;2023-11-22T04:08:46;20.70;56.30
49379;DHT22;35254;47.990;-1.608;2023-11-22T04:11:13;20.70;56.30
49379;DHT22;35254;47.990;-1.608;2023-11-22T04:13:39;20.70;56.40
49379;DHT22;35254;47.990;-1.608;2023-11-22T04:16:08;20.70;56.40
49379;DHT22;35254;47.990;-1.608;2023-11-22T04:18:43;20.60;56.40
49379;DHT22;35254;47.990;-1.608;2023-11-22T04:21:09;20.70;56.70
49379;DHT22;35254;47.990;-1.608;2023-11-22T04:23:35;20.60;56.60
49379;DHT22;35254;47.990;-1.608;2023-11-22T04:26:02;20.60;56.50
49379;DHT22;35254;47.990;-1.608;2023-11-22T04:28:28;20.70;56.70
49379;DHT22;35254;47.990;-1.608;2023-11-22T04:30:57;20.60;56.60
49379;DHT22;35254;47.990;-1.608;2023-11-22T04:33:23;20.60;56.60
49379;DHT22;35254;47.990;-1.608;2023-11-22T04:35:49;20.60;56.50
49379;DHT22;35254;47.990;-1.608;2023-11-22T04:38:14;20.60;56.50
49379;DHT22;35254;47.990;-1.608;2023-11-22T04:40:40;20.60;56.60
49379;DHT22;35254;47.990;-1.608;2023-11-22T04:43:05;20.60;56.60
49379;DHT22;35254;47.990;-1.608;2023-11-22T04:45:32;20.60;56.50
49379;DHT22;35254;47.990;-1.608;2023-11-22T04:47:57;20.60;56.50
49379;DHT22;35254;47.990;-1.608;2023-11-22T04:50:23;20.60;56.50
49379;DHT22;35254;47.990;-1.608;2023-11-22T04:52:52;20.60;56.40
49379;DHT22;35254;47.990;-1.608;2023-11-22T04:55:18;20.60;56.40
49379;DHT22;35254;47.990;-1.608;2023-11-22T04:57:48;20.60;56.30
49379;DHT22;35254;47.990;-1.608;2023-11-22T05:00:14;20.60;56.30
49379;DHT22;35254;47.990;-1.608;2023-11-22T05:02:40;20.60;56.30
49379;DHT22;35254;47.990;-1.608;2023-11-22T05:05:07;20.60;56.10
49379;DHT22;35254;47.990;-1.608;2023-11-22T05:07:32;20.50;56.20
49379;DHT22;35254;47.990;-1.608;2023-11-22T05:09:58;20.50;56.20
49379;DHT22;35254;47.990;-1.608;2023-11-22T05:12:24;20.60;56.10
49379;DHT22;35254;47.990;-1.608;2023-11-22T05:14:49;20.50;56.10
49379;DHT22;35254;47.990;-1.608;2023-11-22T05:17:15;20.50;56.00
49379;DHT22;35254;47.990;-1.608;2023-11-22T05:19:42;20.50;56.00
49379;DHT22;35254;47.990;-1.608;2023-11-22T05:22:07;20.50;56.00
49379;DHT22;35254;47.990;-1.608;2023-11-22T05:24:33;20.50;56.00
49379;DHT22;35254;47.990;-1.608;2023-11-22T05:27:00;20.50;56.00
49379;DHT22;35254;47.990;-1.608;2023-11-22T05:29:26;20.50;55.90
49379;DHT22;35254;47.990;-1.608;2023-11-22T05:31:51;20.50;55.90
49379;DHT22;35254;47.990;-1.608;2023-11-22T05:34:18;20.50;56.00
49379;DHT22;35254;47.990;-1.608;2023-11-22T05:36:43;20.50;55.90
49379;DHT22;35254;47.990;-1.608;2023-11-22T05:39:09;20.50;55.90
49379;DHT22;35254;47.990;-1.608;2023-11-22T05:41:35;20.50;55.80
49379;DHT22;35254;47.990;-1.608;2023-11-22T05:44:01;20.50;55.90
49379;DHT22;35254;47.990;-1.608;2023-11-22T05:46:28;20.50;55.90
49379;DHT22;35254;47.990;-1.608;2023-11-22T05:48:54;20.50;55.80
49379;DHT22;35254;47.990;-1.608;2023-11-22T05:51:20;20.50;55.80
49379;DHT22;35254;47.990;-1.608;2023-11-22T05:53:46;20.50;55.80
49379;DHT22;35254;47.990;-1.608;2023-11-22T05:56:12;20.50;55.80
49379;DHT22;35254;47.990;-1.608;2023-11-22T05:58:38;20.50;55.70
49379;DHT22;35254;47.990;-1.608;2023-11-22T06:01:08;20.50;55.80
49379;DHT22;35254;47.990;-1.608;2023-11-22T06:03:37;20.50;55.70
49379;DHT22;35254;47.990;-1.608;2023-11-22T06:06:04;20.40;55.70
49379;DHT22;35254;47.990;-1.608;2023-11-22T06:08:30;20.50;55.70
49379;DHT22;35254;47.990;-1.608;2023-11-22T06:10:56;20.50;55.70
49379;DHT22;35254;47.990;-1.608;2023-11-22T06:13:23;20.50;55.70
49379;DHT22;35254;47.990;-1.608;2023-11-22T06:15:49;20.50;55.70
49379;DHT22;35254;47.990;-1.608;2023-11-22T06:18:15;20.50;55.60
49379;DHT22;35254;47.990;-1.608;2023-11-22T06:20:41;20.40;55.60
49379;DHT22;35254;47.990;-1.608;2023-11-22T06:23:07;20.40;55.60
49379;DHT22;35254;47.990;-1.608;2023-11-22T06:25:33;20.50;55.60
49379;DHT22;35254;47.990;-1.608;2023-11-22T06:27:58;20.50;55.60
49379;DHT22;35254;47.990;-1.608;2023-11-22T06:30:24;20.50;55.60
49379;DHT22;35254;47.990;-1.608;2023-11-22T06:32:51;20.40;55.50
49379;DHT22;35254;47.990;-1.608;2023-11-22T06:35:16;20.50;55.60
49379;DHT22;35254;47.990;-1.608;2023-11-22T06:37:46;20.50;55.50
49379;DHT22;35254;47.990;-1.608;2023-11-22T06:40:12;20.50;55.50
49379;DHT22;35254;47.990;-1.608;2023-11-22T06:42:38;20.50;55.60
49379;DHT22;35254;47.990;-1.608;2023-11-22T06:45:07;20.50;55.50
49379;DHT22;35254;47.990;-1.608;2023-11-22T06:47:36;20.50;55.50
49379;DHT22;35254;47.990;-1.608;2023-11-22T06:50:02;20.50;55.50
49379;DHT22;35254;47.990;-1.608;2023-11-22T06:52:29;20.50;55.50
49379;DHT22;35254;47.990;-1.608;2023-11-22T06:54:55;20.50;55.40
49379;DHT22;35254;47.990;-1.608;2023-11-22T06:57:21;20.50;55.40
49379;DHT22;35254;47.990;-1.608;2023-11-22T06:59:54;20.50;55.30
49379;DHT22;35254;47.990;-1.608;2023-11-22T07:02:19;20.50;55.30
49379;DHT22;35254;47.990;-1.608;2023-11-22T07:04:45;20.50;55.30
49379;DHT22;35254;47.990;-1.608;2023-11-22T07:07:10;20.50;55.30
49379;DHT22;35254;47.990;-1.608;2023-11-22T07:09:36;20.50;55.30
49379;DHT22;35254;47.990;-1.608;2023-11-22T07:12:02;20.50;55.30
49379;DHT22;35254;47.990;-1.608;2023-11-22T07:14:31;20.50;55.30
49379;DHT22;35254;47.990;-1.608;2023-11-22T07:16:57;20.40;55.30
49379;DHT22;35254;47.990;-1.608;2023-11-22T07:19:23;20.50;55.30
49379;DHT22;35254;47.990;-1.608;2023-11-22T07:21:49;20.50;55.30
49379;DHT22;35254;47.990;-1.608;2023-11-22T07:24:14;20.40;55.20
49379;DHT22;35254;47.990;-1.608;2023-11-22T07:26:41;20.50;55.20
49379;DHT22;35254;47.990;-1.608;2023-11-22T07:29:08;20.50;55.20
49379;DHT22;35254;47.990;-1.608;2023-11-22T07:31:33;20.50;55.20
49379;DHT22;35254;47.990;-1.608;2023-11-22T07:33:59;20.50;55.20
49379;DHT22;35254;47.990;-1.608;2023-11-22T07:36:27;20.50;55.20
49379;DHT22;35254;47.990;-1.608;2023-11-22T07:38:54;20.50;55.20
49379;DHT22;35254;47.990;-1.608;2023-11-22T07:41:19;20.50;55.10
49379;DHT22;35254;47.990;-1.608;2023-11-22T07:43:46;20.50;55.20
49379;DHT22;35254;47.990;-1.608;2023-11-22T07:46:12;20.50;55.10
49379;DHT22;35254;47.990;-1.608;2023-11-22T07:48:42;20.50;55.00
49379;DHT22;35254;47.990;-1.608;2023-11-22T07:51:07;20.40;55.00
49379;DHT22;35254;47.990;-1.608;2023-11-22T07:53:34;20.40;55.00
49379;DHT22;35254;47.990;-1.608;2023-11-22T07:56:01;20.50;55.00
49379;DHT22;35254;47.990;-1.608;2023-11-22T07:58:33;20.40;55.10
49379;DHT22;35254;47.990;-1.608;2023-11-22T08:00:59;20.50;55.20
49379;DHT22;35254;47.990;-1.608;2023-11-22T08:03:28;20.40;55.00
49379;DHT22;35254;47.990;-1.608;2023-11-22T08:05:53;20.40;55.10
49379;DHT22;35254;47.990;-1.608;2023-11-22T08:08:21;20.40;55.00
49379;DHT22;35254;47.990;-1.608;2023-11-22T08:10:47;20.40;55.00
49379;DHT22;35254;47.990;-1.608;2023-11-22T08:13:14;20.50;55.00
49379;DHT22;35254;47.990;-1.608;2023-11-22T08:15:41;20.40;55.00
49379;DHT22;35254;47.990;-1.608;2023-11-22T08:18:07;20.50;55.10
49379;DHT22;35254;47.990;-1.608;2023-11-22T08:20:32;20.50;55.10
49379;DHT22;35254;47.990;-1.608;2023-11-22T08:22:58;20.50;55.10
49379;DHT22;35254;47.990;-1.608;2023-11-22T08:25:23;20.50;55.10
49379;DHT22;35254;47.990;-1.608;2023-11-22T08:27:49;20.50;55.20
49379;DHT22;35254;47.990;-1.608;2023-11-22T08:30:15;20.50;55.20
49379;DHT22;35254;47.990;-1.608;2023-11-22T08:32:45;20.50;55.20
49379;DHT22;35254;47.990;-1.608;2023-11-22T08:35:19;20.50;55.20
49379;DHT22;35254;47.990;-1.608;2023-11-22T08:37:46;20.50;55.30
49379;DHT22;35254;47.990;-1.608;2023-11-22T08:40:13;20.50;55.30
49379;DHT22;35254;47.990;-1.608;2023-11-22T08:42:46;20.50;55.30
49379;DHT22;35254;47.990;-1.608;2023-11-22T08:45:11;20.60;55.30
49379;DHT22;35254;47.990;-1.608;2023-11-22T08:47:39;20.60;55.30
49379;DHT22;35254;47.990;-1.608;2023-11-22T08:50:06;20.60;55.40
49379;DHT22;35254;47.990;-1.608;2023-11-22T08:52:32;20.60;55.50
49379;DHT22;35254;47.990;-1.608;2023-11-22T08:54:57;20.60;55.70
49379;DHT22;35254;47.990;-1.608;2023-11-22T08:57:26;20.60;55.80
49379;DHT22;35254;47.990;-1.608;2023-11-22T08:59:51;20.60;55.70
49379;DHT22;35254;47.990;-1.608;2023-11-22T09:02:17;20.60;55.70
49379;DHT22;35254;47.990;-1.608;2023-11-22T09:04:43;20.60;55.70
49379;DHT22;35254;47.990;-1.608;2023-11-22T09:07:08;20.60;55.70
49379;DHT22;35254;47.990;-1.608;2023-11-22T09:09:35;20.60;55.70
49379;DHT22;35254;47.990;-1.608;2023-11-22T09:12:01;20.70;55.70
49379;DHT22;35254;47.990;-1.608;2023-11-22T09:14:27;20.70;55.80
49379;DHT22;35254;47.990;-1.608;2023-11-22T09:16:54;20.70;55.90
49379;DHT22;35254;47.990;-1.608;2023-11-22T09:19:24;20.70;55.90
49379;DHT22;35254;47.990;-1.608;2023-11-22T09:21:50;20.70;55.90
49379;DHT22;35254;47.990;-1.608;2023-11-22T09:24:16;20.80;56.00
49379;DHT22;35254;47.990;-1.608;2023-11-22T09:26:42;20.80;56.20
49379;DHT22;35254;47.990;-1.608;2023-11-22T09:29:09;20.80;56.30
49379;DHT22;35254;47.990;-1.608;2023-11-22T09:31:39;20.80;56.40
49379;DHT22;35254;47.990;-1.608;2023-11-22T09:34:04;20.90;56.40
49379;DHT22;35254;47.990;-1.608;2023-11-22T09:36:30;20.90;56.50
49379;DHT22;35254;47.990;-1.608;2023-11-22T09:38:59;20.90;56.50
49379;DHT22;35254;47.990;-1.608;2023-11-22T09:41:25;21.00;56.60
49379;DHT22;35254;47.990;-1.608;2023-11-22T09:43:55;21.00;56.50
49379;DHT22;35254;47.990;-1.608;2023-11-22T09:46:22;21.00;56.40
49379;DHT22;35254;47.990;-1.608;2023-11-22T09:48:49;21.10;56.50
49379;DHT22;35254;47.990;-1.608;2023-11-22T09:51:21;21.10;56.40
49379;DHT22;35254;47.990;-1.608;2023-11-22T09:54:00;21.20;56.50
49379;DHT22;35254;47.990;-1.608;2023-11-22T09:56:30;21.20;56.40
49379;DHT22;35254;47.990;-1.608;2023-11-22T09:58:58;21.20;56.40
49379;DHT22;35254;47.990;-1.608;2023-11-22T10:01:27;21.20;56.40
49379;DHT22;35254;47.990;-1.608;2023-11-22T10:03:54;21.20;56.40
49379;DHT22;35254;47.990;-1.608;2023-11-22T10:06:20;21.20;56.30
49379;DHT22;35254;47.990;-1.608;2023-11-22T10:08:46;21.20;56.30
49379;DHT22;35254;47.990;-1.608;2023-11-22T10:11:15;21.20;56.30
49379;DHT22;35254;47.990;-1.608;2023-11-22T10:13:43;21.20;56.20
49379;DHT22;35254;47.990;-1.608;2023-11-22T10:16:12;21.20;56.20
49379;DHT22;35254;47.990;-1.608;2023-11-22T10:18:45;21.30;56.20
49379;DHT22;35254;47.990;-1.608;2023-11-22T10:23:53;21.30;56.20
49379;DHT22;35254;47.990;-1.608;2023-11-22T10:26:19;21.40;56.20
49379;DHT22;35254;47.990;-1.608;2023-11-22T10:28:45;21.30;56.10
49379;DHT22;35254;47.990;-1.608;2023-11-22T10:31:11;21.40;56.20
49379;DHT22;35254;47.990;-1.608;2023-11-22T10:33:40;21.40;56.20
49379;DHT22;35254;47.990;-1.608;2023-11-22T10:36:09;21.40;56.20
49379;DHT22;35254;47.990;-1.608;2023-11-22T10:38:35;21.40;56.20
49379;DHT22;35254;47.990;-1.608;2023-11-22T10:41:10;21.40;56.20
49379;DHT22;35254;47.990;-1.608;2023-11-22T10:43:36;21.50;56.10
49379;DHT22;35254;47.990;-1.608;2023-11-22T10:46:03;21.50;56.10
49379;DHT22;35254;47.990;-1.608;2023-11-22T10:48:30;21.60;56.00
49379;DHT22;35254;47.990;-1.608;2023-11-22T10:51:01;21.60;56.00
49379;DHT22;35254;47.990;-1.608;2023-11-22T10:53:35;21.60;55.90
49379;DHT22;35254;47.990;-1.608;2023-11-22T10:56:08;21.70;55.90
49379;DHT22;35254;47.990;-1.608;2023-11-22T10:58:48;21.70;55.80
49379;DHT22;35254;47.990;-1.608;2023-11-22T11:01:16;21.70;55.80
49379;DHT22;35254;47.990;-1.608;2023-11-22T11:04:23;21.70;55.80
49379;DHT22;35254;47.990;-1.608;2023-11-22T11:06:53;21.70;55.80
49379;DHT22;35254;47.990;-1.608;2023-11-22T11:09:20;21.60;55.80
49379;DHT22;35254;47.990;-1.608;2023-11-22T11:11:47;21.60;55.80
49379;DHT22;35254;47.990;-1.608;2023-11-22T11:14:14;21.60;55.70
49379;DHT22;35254;47.990;-1.608;2023-11-22T11:16:41;21.60;55.70
49379;DHT22;35254;47.990;-1.608;2023-11-22T11:19:12;21.60;55.70
49379;DHT22;35254;47.990;-1.608;2023-11-22T11:21:39;21.70;55.50
49379;DHT22;35254;47.990;-1.608;2023-11-22T11:24:05;21.70;55.30
49379;DHT22;35254;47.990;-1.608;2023-11-22T11:26:34;21.60;55.20
49379;DHT22;35254;47.990;-1.608;2023-11-22T11:29:00;21.60;55.30
49379;DHT22;35254;47.990;-1.608;2023-11-22T11:31:31;21.60;55.20
49379;DHT22;35254;47.990;-1.608;2023-11-22T11:34:01;21.60;55.10
49379;DHT22;35254;47.990;-1.608;2023-11-22T11:36:28;21.60;55.10
49379;DHT22;35254;47.990;-1.608;2023-11-22T11:38:56;21.70;55.10
49379;DHT22;35254;47.990;-1.608;2023-11-22T11:41:31;21.60;55.00
49379;DHT22;35254;47.990;-1.608;2023-11-22T11:43:58;21.70;55.10
49379;DHT22;35254;47.990;-1.608;2023-11-22T11:46:26;21.70;54.70
49379;DHT22;35254;47.990;-1.608;2023-11-22T11:48:53;21.60;54.70
49379;DHT22;35254;47.990;-1.608;2023-11-22T11:51:29;21.60;54.80
49379;DHT22;35254;47.990;-1.608;2023-11-22T11:53:55;21.70;54.80
49379;DHT22;35254;47.990;-1.608;2023-11-22T11:56:21;21.70;54.70
49379;DHT22;35254;47.990;-1.608;2023-11-22T11:58:50;21.70;54.60
49379;DHT22;35254;47.990;-1.608;2023-11-22T12:01:17;21.70;54.30
49379;DHT22;35254;47.990;-1.608;2023-11-22T12:03:43;21.70;54.30
49379;DHT22;35254;47.990;-1.608;2023-11-22T12:06:09;21.70;54.00
49379;DHT22;35254;47.990;-1.608;2023-11-22T12:08:35;21.70;54.00
49379;DHT22;35254;47.990;-1.608;2023-11-22T12:11:04;21.70;53.90
49379;DHT22;35254;47.990;-1.608;2023-11-22T12:13:32;21.70;53.60
49379;DHT22;35254;47.990;-1.608;2023-11-22T12:15:58;21.70;53.50
49379;DHT22;35254;47.990;-1.608;2023-11-22T12:18:25;21.70;53.60
49379;DHT22;35254;47.990;-1.608;2023-11-22T12:21:00;21.70;53.30
49379;DHT22;35254;47.990;-1.608;2023-11-22T12:23:27;21.70;53.40
49379;DHT22;35254;47.990;-1.608;2023-11-22T12:25:54;21.70;53.20
49379;DHT22;35254;47.990;-1.608;2023-11-22T12:28:31;21.70;53.30
49379;DHT22;35254;47.990;-1.608;2023-11-22T12:31:10;21.70;53.00
49379;DHT22;35254;47.990;-1.608;2023-11-22T12:33:36;21.80;53.40
49379;DHT22;35254;47.990;-1.608;2023-11-22T12:36:03;21.80;53.40
49379;DHT22;35254;47.990;-1.608;2023-11-22T12:38:29;21.70;53.80
49379;DHT22;35254;47.990;-1.608;2023-11-22T12:40:58;21.80;54.10
49379;DHT22;35254;47.990;-1.608;2023-11-22T12:43:25;21.80;54.80
49379;DHT22;35254;47.990;-1.608;2023-11-22T12:46:04;21.80;54.60
49379;DHT22;35254;47.990;-1.608;2023-11-22T12:48:32;21.80;54.80
49379;DHT22;35254;47.990;-1.608;2023-11-22T12:50:59;21.80;55.60
49379;DHT22;35254;47.990;-1.608;2023-11-22T12:53:26;21.80;58.20
49379;DHT22;35254;47.990;-1.608;2023-11-22T12:55:54;21.90;56.30
49379;DHT22;35254;47.990;-1.608;2023-11-22T12:58:22;21.90;56.50
49379;DHT22;35254;47.990;-1.608;2023-11-22T13:00:50;21.90;55.60
49379;DHT22;35254;47.990;-1.608;2023-11-22T13:03:16;21.90;55.80
49379;DHT22;35254;47.990;-1.608;2023-11-22T13:05:43;21.90;56.10
49379;DHT22;35254;47.990;-1.608;2023-11-22T13:08:13;22.00;56.20
49379;DHT22;35254;47.990;-1.608;2023-11-22T13:10:46;21.90;56.20
49379;DHT22;35254;47.990;-1.608;2023-11-22T13:13:13;21.90;56.20
49379;DHT22;35254;47.990;-1.608;2023-11-22T13:15:39;21.90;56.10
49379;DHT22;35254;47.990;-1.608;2023-11-22T13:18:08;22.00;56.10
49379;DHT22;35254;47.990;-1.608;2023-11-22T13:20:34;21.90;56.10
49379;DHT22;35254;47.990;-1.608;2023-11-22T13:23:00;21.90;56.10
49379;DHT22;35254;47.990;-1.608;2023-11-22T13:25:27;22.00;56.00
49379;DHT22;35254;47.990;-1.608;2023-11-22T13:27:54;21.90;55.90
49379;DHT22;35254;47.990;-1.608;2023-11-22T13:30:22;22.00;55.90
49379;DHT22;35254;47.990;-1.608;2023-11-22T13:32:49;21.90;55.70
49379;DHT22;35254;47.990;-1.608;2023-11-22T13:35:15;22.00;55.60
49379;DHT22;35254;47.990;-1.608;2023-11-22T13:37:43;21.90;55.60
49379;DHT22;35254;47.990;-1.608;2023-11-22T13:40:13;21.90;55.50
49379;DHT22;35254;47.990;-1.608;2023-11-22T13:42:49;21.90;55.40
49379;DHT22;35254;47.990;-1.608;2023-11-22T13:45:17;22.00;55.40
49379;DHT22;35254;47.990;-1.608;2023-11-22T13:47:44;22.00;55.30
49379;DHT22;35254;47.990;-1.608;2023-11-22T13:50:14;22.00;55.30
49379;DHT22;35254;47.990;-1.608;2023-11-22T13:52:46;22.00;55.20
49379;DHT22;35254;47.990;-1.608;2023-11-22T13:55:12;22.00;55.20
49379;DHT22;35254;47.990;-1.608;2023-11-22T13:57:38;22.00;55.20
49379;DHT22;35254;47.990;-1.608;2023-11-22T14:00:08;22.00;55.10
49379;DHT22;35254;47.990;-1.608;2023-11-22T14:02:53;22.00;55.00
49379;DHT22;35254;47.990;-1.608;2023-11-22T14:05:25;22.00;54.90
49379;DHT22;35254;47.990;-1.608;2023-11-22T14:07:52;22.00;54.90
49379;DHT22;35254;47.990;-1.608;2023-11-22T14:10:20;22.10;54.90
49379;DHT22;35254;47.990;-1.608;2023-11-22T14:12:51;22.10;54.90
49379;DHT22;35254;47.990;-1.608;2023-11-22T14:15:17;22.10;54.80
49379;DHT22;35254;47.990;-1.608;2023-11-22T14:17:43;22.10;54.70
49379;DHT22;35254;47.990;-1.608;2023-11-22T14:20:09;22.00;54.70
49379;DHT22;35254;47.990;-1.608;2023-11-22T14:22:36;22.10;54.70
49379;DHT22;35254;47.990;-1.608;2023-11-22T14:25:02;22.10;54.70
49379;DHT22;35254;47.990;-1.608;2023-11-22T14:27:28;22.00;54.60
49379;DHT22;35254;47.990;-1.608;2023-11-22T14:29:56;22.10;54.70
49379;DHT22;35254;47.990;-1.608;2023-11-22T14:32:22;22.10;54.60
49379;DHT22;35254;47.990;-1.608;2023-11-22T14:34:48;22.10;54.70
49379;DHT22;35254;47.990;-1.608;2023-11-22T14:37:14;22.10;54.60
49379;DHT22;35254;47.990;-1.608;2023-11-22T14:39:40;22.10;54.60
49379;DHT22;35254;47.990;-1.608;2023-11-22T14:42:06;22.10;54.40
49379;DHT22;35254;47.990;-1.608;2023-11-22T14:44:34;22.10;54.30
49379;DHT22;35254;47.990;-1.608;2023-11-22T14:47:00;22.10;54.20
49379;DHT22;35254;47.990;-1.608;2023-11-22T14:49:32;22.10;54.10
49379;DHT22;35254;47.990;-1.608;2023-11-22T14:51:57;22.10;54.10
49379;DHT22;35254;47.990;-1.608;2023-11-22T14:54:23;22.10;54.00
49379;DHT22;35254;47.990;-1.608;2023-11-22T14:56:49;22.10;54.10
49379;DHT22;35254;47.990;-1.608;2023-11-22T14:59:15;22.10;54.10
49379;DHT22;35254;47.990;-1.608;2023-11-22T15:01:42;22.10;54.10
49379;DHT22;35254;47.990;-1.608;2023-11-22T15:04:09;22.10;54.10
49379;DHT22;35254;47.990;-1.608;2023-11-22T15:06:36;22.10;54.10
49379;DHT22;35254;47.990;-1.608;2023-11-22T15:09:02;22.20;54.10
49379;DHT22;35254;47.990;-1.608;2023-11-22T15:11:36;22.10;54.20
49379;DHT22;35254;47.990;-1.608;2023-11-22T15:14:03;22.20;54.20
49379;DHT22;35254;47.990;-1.608;2023-11-22T15:16:29;22.10;54.30